createdAt,value
2023-03-11T00:00:47.112Z,9.14
2023-03-11T00:03:51.136Z,9.30
2023-03-11T00:06:54.307Z,9.51
2023-03-11T00:09:59.092Z,9.55
2023-03-11T00:13:05.618Z,9.64
2023-03-11T00:16:10.198Z,9.65
2023-03-11T00:19:14.433Z,9.58
2023-03-11T00:22:18.210Z,9.77
2023-03-11T00:25:24.013Z,9.71
2023-03-11T00:28:27.601Z,9.65
2023-03-11T00:31:31.152Z,9.63
2023-03-11T00:34:35.440Z,9.75
2023-03-11T00:37:38.530Z,9.75
2023-03-11T00:40:43.408Z,9.69
2023-03-11T00:43:46.737Z,9.75
2023-03-11T00:46:50.164Z,9.66
2023-03-11T00:49:53.345Z,9.56
2023-03-11T00:52:57.529Z,9.68
2023-03-11T00:56:07.474Z,9.66
2023-03-11T00:59:11.945Z,9.90
2023-03-11T01:02:17.929Z,9.72
2023-03-11T01:05:24.386Z,9.67
2023-03-11T01:08:27.942Z,9.69
2023-03-11T01:11:32.001Z,9.71
2023-03-11T01:14:35.026Z,9.67
2023-03-11T01:17:38.420Z,9.75
2023-03-11T01:20:41.842Z,9.57
2023-03-11T01:23:46.376Z,9.44
2023-03-11T01:26:49.578Z,9.50
2023-03-11T01:29:53.628Z,9.54
2023-03-11T01:32:57.730Z,9.41
2023-03-11T01:36:01.289Z,9.25
2023-03-11T01:39:04.974Z,9.33
2023-03-11T01:42:08.509Z,9.23
2023-03-11T01:45:40.955Z,9.13
2023-03-11T01:48:51.043Z,9.03
2023-03-11T01:51:57.709Z,8.99
2023-03-11T01:55:01.248Z,8.97
2023-03-11T01:58:07.800Z,8.99
2023-03-11T02:01:13.082Z,8.95
2023-03-11T02:04:17.137Z,9.15
2023-03-11T02:07:20.360Z,9.00
2023-03-11T02:10:24.500Z,8.89
2023-03-11T02:13:29.389Z,8.92
2023-03-11T02:16:33.283Z,9.00
2023-03-11T02:20:06.447Z,9.14
2023-03-11T02:23:12.398Z,9.04
2023-03-11T02:26:24.053Z,9.38
2023-03-11T02:29:28.824Z,9.44
2023-03-11T02:32:33.372Z,9.44
2023-03-11T02:35:37.013Z,9.36
2023-03-11T02:38:40.595Z,9.42
2023-03-11T02:41:46.904Z,9.41
2023-03-11T02:45:12.161Z,9.39
2023-03-11T02:48:17.027Z,9.43
2023-03-11T02:51:22.121Z,9.45
2023-03-11T02:54:26.831Z,9.57
2023-03-11T02:57:30.443Z,9.54
2023-03-11T03:00:34.668Z,9.51
2023-03-11T03:03:38.653Z,9.41
2023-03-11T03:06:42.040Z,9.36
2023-03-11T03:09:45.783Z,9.23
2023-03-11T03:12:49.533Z,9.33
2023-03-11T03:15:53.067Z,9.36
2023-03-11T03:18:56.274Z,9.28
2023-03-11T03:22:01.343Z,9.30
2023-03-11T03:25:06.162Z,9.31
2023-03-11T03:28:11.723Z,9.18
2023-03-11T03:31:15.807Z,9.16
2023-03-11T03:34:19.563Z,9.09
2023-03-11T03:37:22.733Z,9.01
2023-03-11T03:40:27.206Z,9.05
2023-03-11T03:43:31.906Z,9.05
2023-03-11T03:46:36.286Z,9.04
2023-03-11T03:49:39.774Z,8.89
2023-03-11T03:52:44.536Z,8.83
2023-03-11T03:55:50.971Z,8.71
2023-03-11T03:58:55.277Z,8.73
2023-03-11T04:01:59.913Z,8.76
2023-03-11T04:05:06.052Z,8.63
2023-03-11T04:08:09.577Z,8.53
2023-03-11T04:11:13.850Z,8.51
2023-03-11T04:14:17.502Z,8.44
2023-03-11T04:17:22.124Z,8.44
2023-03-11T04:20:25.649Z,8.38
2023-03-11T04:23:29.691Z,8.27
2023-03-11T04:26:33.594Z,8.16
2023-03-11T04:29:37.530Z,8.06
2023-03-11T04:32:41.124Z,7.93
2023-03-11T04:35:45.467Z,7.82
2023-03-11T04:38:49.349Z,7.73
2023-03-11T04:41:53.368Z,7.67
2023-03-11T04:44:57.257Z,7.56
2023-03-11T04:48:01.558Z,7.59
2023-03-11T04:51:06.047Z,7.45
2023-03-11T04:54:09.738Z,7.41
2023-03-11T04:57:14.341Z,7.33
2023-03-11T05:00:24.922Z,7.27
2023-03-11T05:03:28.879Z,7.19
2023-03-11T05:06:32.494Z,7.05
2023-03-11T05:09:37.212Z,6.86
2023-03-11T05:12:42.299Z,6.82
2023-03-11T05:15:46.184Z,6.77
2023-03-11T05:18:49.934Z,6.69
2023-03-11T05:21:54.023Z,6.62
2023-03-11T05:25:00.301Z,6.56
2023-03-11T05:28:04.173Z,6.47
2023-03-11T05:31:10.181Z,6.48
2023-03-11T05:34:14.679Z,6.34
2023-03-11T05:37:18.610Z,6.34
2023-03-11T05:40:22.449Z,6.26
2023-03-11T05:43:26.212Z,6.10
2023-03-11T05:46:30.219Z,6.11
2023-03-11T05:49:34.216Z,5.98
2023-03-11T05:52:38.320Z,5.90
2023-03-11T05:55:41.820Z,5.80
2023-03-11T05:58:48.406Z,5.68
2023-03-11T06:01:52.863Z,5.67
2023-03-11T06:04:57.843Z,5.56
2023-03-11T06:08:01.409Z,5.48
2023-03-11T06:11:10.688Z,5.48
2023-03-11T06:14:15.117Z,5.42
2023-03-11T06:17:19.300Z,5.40
2023-03-11T06:20:22.716Z,5.39
2023-03-11T06:23:27.137Z,5.46
2023-03-11T06:26:31.240Z,5.34
2023-03-11T06:29:34.429Z,5.33
2023-03-11T06:32:38.296Z,5.30
2023-03-11T06:35:44.045Z,5.26
2023-03-11T06:38:48.980Z,5.28
2023-03-11T06:41:52.449Z,5.27
2023-03-11T06:44:56.729Z,5.24
2023-03-11T06:48:01.820Z,5.22
2023-03-11T06:51:06.245Z,5.26
2023-03-11T06:54:10.522Z,5.22
2023-03-11T06:57:13.700Z,5.18
2023-03-11T07:00:17.935Z,5.17
2023-03-11T07:03:22.268Z,5.22
2023-03-11T07:06:28.181Z,5.24
2023-03-11T07:09:33.310Z,5.23
2023-03-11T07:12:38.078Z,5.27
2023-03-11T07:15:41.276Z,5.24
2023-03-11T07:18:46.277Z,5.28
2023-03-11T07:21:49.626Z,5.30
2023-03-11T07:24:53.151Z,5.26
2023-03-11T07:27:56.404Z,5.22
2023-03-11T07:30:59.855Z,5.15
2023-03-11T07:34:05.563Z,5.18
2023-03-11T07:37:08.859Z,5.26
2023-03-11T07:40:12.947Z,5.34
2023-03-11T07:43:17.391Z,5.25
2023-03-11T07:46:22.984Z,5.26
2023-03-11T07:49:27.702Z,5.24
2023-03-11T07:52:33.347Z,5.14
2023-03-11T07:55:36.895Z,5.09
2023-03-11T07:58:41.458Z,4.99
2023-03-11T08:01:47.505Z,4.89
2023-03-11T08:04:52.192Z,4.86
2023-03-11T08:07:55.285Z,4.84
2023-03-11T08:10:58.754Z,4.94
2023-03-11T08:14:02.387Z,4.99
2023-03-11T08:17:06.204Z,4.88
2023-03-11T08:20:10.376Z,5.06
2023-03-11T08:23:14.576Z,5.14
2023-03-11T08:26:20.648Z,5.19
2023-03-11T08:29:25.109Z,5.27
2023-03-11T08:32:31.662Z,5.23
2023-03-11T08:35:35.286Z,5.27
2023-03-11T08:38:39.323Z,5.24
2023-03-11T08:41:43.829Z,5.28
2023-03-11T08:44:47.057Z,5.28
2023-03-11T08:47:50.834Z,5.19
2023-03-11T08:50:54.892Z,5.36
2023-03-11T08:53:59.235Z,5.64
2023-03-11T08:57:04.715Z,5.91
2023-03-11T09:00:11.520Z,6.02
2023-03-11T09:03:15.600Z,5.72
2023-03-11T09:06:19.372Z,5.69
2023-03-11T09:09:23.693Z,5.54
2023-03-11T09:12:28.545Z,5.42
2023-03-11T09:15:31.850Z,5.39
2023-03-11T09:18:36.274Z,5.40
2023-03-11T09:21:39.617Z,5.38
2023-03-11T09:24:43.289Z,5.37
2023-03-11T09:27:46.299Z,5.54
2023-03-11T09:30:49.834Z,5.98
2023-03-11T09:33:55.598Z,6.57
2023-03-11T09:36:58.983Z,6.23
2023-03-11T09:40:02.331Z,5.93
2023-03-11T09:43:18.747Z,5.97
2023-03-11T09:46:41.570Z,5.85
2023-03-11T09:50:15.326Z,5.69
2023-03-11T09:53:24.196Z,5.98
2023-03-11T09:56:27.894Z,6.16
2023-03-11T09:59:32.885Z,6.50
2023-03-11T10:02:37.926Z,6.32
2023-03-11T10:05:44.352Z,6.14
2023-03-11T10:09:00.334Z,6.25
2023-03-11T10:12:45.960Z,6.42
2023-03-11T10:16:02.466Z,6.66
2023-03-11T10:19:39.745Z,6.94
2023-03-11T10:23:21.861Z,6.99
2023-03-11T10:26:48.964Z,6.63
2023-03-11T10:30:34.533Z,6.32
2023-03-11T10:33:49.161Z,6.71
2023-03-11T10:37:16.848Z,6.43
2023-03-11T10:40:31.679Z,6.19
2023-03-11T10:43:40.199Z,6.25
2023-03-11T10:46:43.513Z,6.64
2023-03-11T10:49:46.830Z,6.79
2023-03-11T10:53:11.262Z,6.22
2023-03-11T10:56:39.121Z,6.47
2023-03-11T10:59:55.489Z,6.68
2023-03-11T11:03:00.014Z,6.68
2023-03-11T11:06:06.509Z,7.40
2023-03-11T11:09:22.234Z,6.86
2023-03-11T11:12:25.689Z,6.14
2023-03-11T11:15:37.645Z,5.92
2023-03-11T11:18:54.005Z,5.96
2023-03-11T11:22:05.733Z,5.94
2023-03-11T11:25:27.328Z,6.13
2023-03-11T11:28:33.473Z,5.97
2023-03-11T11:31:39.711Z,5.52
2023-03-11T11:34:54.553Z,5.45
2023-03-11T11:38:02.679Z,5.65
2023-03-11T11:41:06.834Z,5.76
2023-03-11T11:44:15.943Z,5.85
2023-03-11T11:47:43.289Z,6.06
2023-03-11T11:50:59.143Z,6.22
2023-03-11T11:54:28.029Z,6.17
2023-03-11T11:57:32.286Z,6.39
2023-03-11T12:01:05.362Z,6.70
2023-03-11T12:04:17.493Z,6.49
2023-03-11T12:07:41.439Z,6.64
2023-03-11T12:11:03.032Z,6.57
2023-03-11T12:14:37.252Z,6.44
2023-03-11T12:17:44.661Z,6.35
2023-03-11T12:20:56.945Z,6.68
2023-03-11T12:24:32.914Z,6.49
2023-03-11T12:27:58.899Z,6.47
2023-03-11T12:31:07.770Z,6.43
2023-03-11T12:34:14.695Z,6.33
2023-03-11T12:37:23.544Z,6.15
2023-03-11T12:40:43.276Z,6.34
2023-03-11T12:43:47.379Z,6.85
2023-03-11T12:46:59.454Z,7.02
2023-03-11T12:50:43.791Z,6.80
2023-03-11T12:53:49.518Z,6.57
2023-03-11T12:56:58.913Z,6.80
2023-03-11T13:00:27.044Z,6.80
2023-03-11T13:03:47.814Z,6.53
2023-03-11T13:07:27.497Z,6.16
2023-03-11T13:10:35.969Z,6.05
2023-03-11T13:13:43.036Z,5.92
2023-03-11T13:16:48.840Z,5.87
2023-03-11T13:19:57.466Z,5.77
2023-03-11T13:23:01.414Z,5.81
2023-03-11T13:26:19.871Z,5.80
2023-03-11T13:29:42.374Z,5.90
2023-03-11T13:32:55.282Z,5.90
2023-03-11T13:36:40.459Z,5.97
2023-03-11T13:40:02.514Z,6.14
2023-03-11T13:43:20.018Z,5.96
2023-03-11T13:46:38.650Z,6.00
2023-03-11T13:50:00.567Z,6.01
2023-03-11T13:53:09.259Z,6.34
2023-03-11T13:56:27.422Z,6.27
2023-03-11T13:59:38.319Z,6.15
2023-03-11T14:02:55.996Z,6.13
2023-03-11T14:06:02.210Z,6.06
2023-03-11T14:09:06.394Z,5.94
2023-03-11T14:12:12.242Z,5.89
2023-03-11T14:15:27.111Z,5.75
2023-03-11T14:18:37.230Z,5.70
2023-03-11T14:21:45.777Z,5.62
2023-03-11T14:24:49.678Z,5.56
2023-03-11T14:27:56.890Z,5.53
2023-03-11T14:31:02.813Z,5.65
2023-03-11T14:34:16.242Z,5.79
2023-03-11T14:37:35.913Z,5.52
2023-03-11T14:40:39.636Z,5.55
2023-03-11T14:43:48.655Z,5.45
2023-03-11T14:46:54.148Z,5.38
2023-03-11T14:49:59.867Z,5.42
2023-03-11T14:53:15.665Z,5.39
2023-03-11T14:56:25.567Z,5.41
2023-03-11T14:59:35.506Z,5.39
2023-03-11T15:02:43.320Z,5.37
2023-03-11T15:05:56.732Z,5.33
2023-03-11T15:09:14.229Z,5.35
2023-03-11T15:12:38.115Z,5.37
2023-03-11T15:15:42.683Z,5.30
2023-03-11T15:18:46.357Z,5.24
2023-03-11T15:21:54.631Z,5.14
2023-03-11T15:25:01.443Z,5.14
2023-03-11T15:28:25.495Z,5.07
2023-03-11T15:31:35.892Z,5.11
2023-03-11T15:34:40.260Z,4.86
2023-03-11T15:37:45.385Z,4.86
2023-03-11T15:40:54.949Z,5.07
2023-03-11T15:44:02.226Z,5.07
2023-03-11T15:47:07.764Z,5.06
2023-03-11T15:50:24.931Z,4.98
2023-03-11T15:53:31.183Z,4.95
2023-03-11T15:56:35.332Z,4.89
2023-03-11T15:59:41.341Z,4.60
2023-03-11T16:02:45.397Z,4.76
2023-03-11T16:05:49.574Z,4.81
2023-03-11T16:08:53.144Z,4.80
2023-03-11T16:11:57.153Z,4.76
2023-03-11T16:15:00.762Z,4.76
2023-03-11T16:18:18.905Z,4.73
2023-03-11T16:21:29.584Z,4.54
2023-03-11T16:24:35.359Z,4.77
2023-03-11T16:27:39.141Z,4.72
2023-03-11T16:30:43.692Z,4.71
2023-03-11T16:33:48.865Z,4.66
2023-03-11T16:36:53.660Z,4.63
2023-03-11T16:39:58.658Z,4.62
2023-03-11T16:43:06.177Z,4.56
2023-03-11T16:46:11.562Z,4.53
2023-03-11T16:49:16.680Z,4.44
2023-03-11T16:52:23.580Z,4.29
2023-03-11T16:55:29.268Z,4.39
2023-03-11T16:58:34.179Z,4.30
2023-03-11T17:01:39.824Z,4.19
2023-03-11T17:04:44.610Z,4.09
2023-03-11T17:07:48.933Z,4.01
2023-03-11T17:10:53.071Z,4.00
2023-03-11T17:14:13.594Z,3.92
2023-03-11T17:17:20.473Z,3.83
2023-03-11T17:20:27.964Z,3.90
2023-03-11T17:23:32.000Z,3.89
2023-03-11T17:26:37.112Z,3.92
2023-03-11T17:29:41.108Z,3.94
2023-03-11T17:32:45.800Z,3.81
2023-03-11T17:35:49.897Z,3.84
2023-03-11T17:38:56.351Z,3.94
2023-03-11T17:42:00.263Z,3.93
2023-03-11T17:45:05.770Z,3.90
2023-03-11T17:48:10.764Z,4.03
2023-03-11T17:51:18.730Z,4.03
2023-03-11T17:54:23.518Z,4.06
2023-03-11T17:57:28.133Z,4.06
2023-03-11T18:00:31.988Z,3.88
2023-03-11T18:03:36.339Z,3.92
2023-03-11T18:06:41.708Z,3.94
2023-03-11T18:09:47.529Z,3.97
2023-03-11T18:12:53.289Z,3.92
2023-03-11T18:16:00.407Z,3.96
2023-03-11T18:19:04.893Z,3.93
2023-03-11T18:22:10.156Z,3.62
2023-03-11T18:25:14.722Z,3.85
2023-03-11T18:28:20.350Z,3.93
2023-03-11T18:31:26.637Z,3.60
2023-03-11T18:34:33.767Z,3.81
2023-03-11T18:37:39.323Z,3.79
2023-03-11T18:40:44.861Z,3.74
2023-03-11T18:43:54.251Z,3.67
2023-03-11T18:46:58.325Z,3.77
2023-03-11T18:50:02.934Z,3.77
2023-03-11T18:53:07.777Z,3.72
2023-03-11T18:56:15.775Z,3.69
2023-03-11T18:59:20.462Z,3.64
2023-03-11T19:02:28.054Z,3.67
2023-03-11T19:05:33.264Z,3.65
2023-03-11T19:08:37.608Z,3.63
2023-03-11T19:11:42.245Z,3.59
2023-03-11T19:14:47.356Z,3.52
2023-03-11T19:18:05.960Z,3.21
2023-03-11T19:21:13.111Z,3.48
2023-03-11T19:24:17.570Z,3.52
2023-03-11T19:27:22.225Z,3.41
2023-03-11T19:30:27.418Z,3.32
2023-03-11T19:33:33.266Z,3.20
2023-03-11T19:36:39.902Z,3.03
2023-03-11T19:39:48.381Z,3.21
2023-03-11T19:42:54.299Z,3.18
2023-03-11T19:45:59.159Z,3.35
2023-03-11T19:49:04.734Z,3.39
2023-03-11T19:52:10.596Z,3.34
2023-03-11T19:55:15.968Z,3.19
2023-03-11T19:58:20.843Z,3.21
2023-03-11T20:01:30.917Z,3.15
2023-03-11T20:04:36.243Z,3.14
2023-03-11T20:07:39.963Z,3.02
2023-03-11T20:10:47.635Z,2.92
2023-03-11T20:13:51.903Z,3.01
2023-03-11T20:16:56.490Z,3.00
2023-03-11T20:20:00.657Z,2.73
2023-03-11T20:23:06.470Z,2.71
2023-03-11T20:26:15.314Z,2.65
2023-03-11T20:29:20.374Z,2.59
2023-03-11T20:32:24.964Z,2.60
2023-03-11T20:35:29.420Z,2.51
2023-03-11T20:38:39.615Z,2.28
2023-03-11T20:41:48.425Z,2.26
2023-03-11T20:44:54.133Z,2.13
2023-03-11T20:47:58.952Z,2.03
2023-03-11T20:51:05.089Z,1.95
2023-03-11T20:54:16.199Z,1.98
2023-03-11T20:57:21.315Z,1.93
2023-03-11T21:00:29.603Z,1.87
2023-03-11T21:03:35.046Z,1.97
2023-03-11T21:06:43.738Z,1.83
2023-03-11T21:09:53.328Z,1.81
2023-03-11T21:12:57.740Z,1.85
2023-03-11T21:16:03.165Z,1.89
2023-03-11T21:19:10.343Z,1.63
2023-03-11T21:22:14.269Z,1.52
2023-03-11T21:25:18.581Z,1.52
2023-03-11T21:28:22.051Z,1.56
2023-03-11T21:31:29.077Z,1.64
2023-03-11T21:34:33.100Z,1.59
2023-03-11T21:37:40.057Z,1.64
2023-03-11T21:40:43.362Z,1.63
2023-03-11T21:43:48.362Z,1.42
2023-03-11T21:46:51.943Z,1.45
2023-03-11T21:49:56.870Z,1.27
2023-03-11T21:53:00.155Z,1.39
2023-03-11T21:56:05.309Z,1.54
2023-03-11T21:59:10.124Z,1.56
2023-03-11T22:02:16.172Z,1.55
2023-03-11T22:05:20.873Z,1.51
2023-03-11T22:08:24.540Z,1.55
2023-03-11T22:11:28.472Z,1.51
2023-03-11T22:14:31.960Z,1.47
2023-03-11T22:17:35.467Z,1.42
2023-03-11T22:20:40.752Z,1.35
2023-03-11T22:23:45.102Z,1.47
2023-03-11T22:26:48.582Z,1.34
2023-03-11T22:29:51.931Z,1.40
2023-03-11T22:32:55.148Z,1.35
2023-03-11T22:36:01.874Z,1.24
2023-03-11T22:39:05.254Z,1.22
2023-03-11T22:42:09.331Z,1.41
2023-03-11T22:45:12.457Z,1.33
2023-03-11T22:48:15.932Z,1.30
2023-03-11T22:51:19.366Z,1.35
2023-03-11T22:54:24.045Z,1.37
2023-03-11T22:57:27.189Z,1.27
2023-03-11T23:00:31.708Z,1.28
2023-03-11T23:03:36.141Z,1.23
2023-03-11T23:06:39.549Z,1.21
2023-03-11T23:09:43.114Z,1.05
2023-03-11T23:12:47.402Z,1.08
2023-03-11T23:15:50.541Z,0.95
2023-03-11T23:18:55.648Z,1.03
2023-03-11T23:21:59.077Z,0.94
2023-03-11T23:25:04.856Z,0.83
2023-03-11T23:28:08.390Z,0.55
2023-03-11T23:31:14.066Z,0.67
2023-03-11T23:34:17.127Z,0.55
2023-03-11T23:37:20.410Z,0.51
2023-03-11T23:40:24.212Z,0.47
2023-03-11T23:43:27.894Z,0.35
2023-03-11T23:46:31.478Z,0.42
2023-03-11T23:49:35.199Z,0.51
2023-03-11T23:52:38.318Z,0.61
2023-03-11T23:55:41.984Z,0.57
2023-03-11T23:58:46.028Z,0.73
